sensor_id;sensor_type;location;lat;lon;timestamp;temperature;humidity
12568;DHT22;6349;50.904;6.136;2023-06-14T00:00:38;20.20;99.90
12568;DHT22;6349;50.904;6.136;2023-06-14T00:02:41;20.20;99.90
12568;DHT22;6349;50.904;6.136;2023-06-14T00:04:43;20.20;99.90
12568;DHT22;6349;50.904;6.136;2023-06-14T00:06:44;20.00;99.90
12568;DHT22;6349;50.904;6.136;2023-06-14T00:08:50;20.00;99.90
12568;DHT22;6349;50.904;6.136;2023-06-14T00:10:53;19.90;99.90
12568;DHT22;6349;50.904;6.136;2023-06-14T00:12:53;19.80;99.90
12568;DHT22;6349;50.904;6.136;2023-06-14T00:14:55;19.70;99.90
12568;DHT22;6349;50.904;6.136;2023-06-14T00:16:56;19.70;99.90
12568;DHT22;6349;50.904;6.136;2023-06-14T00:18:59;19.70;99.90
12568;DHT22;6349;50.904;6.136;2023-06-14T00:20:59;19.70;99.90
12568;DHT22;6349;50.904;6.136;2023-06-14T00:23:01;19.60;99.90
12568;DHT22;6349;50.904;6.136;2023-06-14T00:25:03;19.60;99.90
12568;DHT22;6349;50.904;6.136;2023-06-14T00:27:04;19.60;99.90
12568;DHT22;6349;50.904;6.136;2023-06-14T00:29:07;19.50;99.90
12568;DHT22;6349;50.904;6.136;2023-06-14T00:31:08;19.50;99.90
12568;DHT22;6349;50.904;6.136;2023-06-14T00:33:09;19.40;99.90
12568;DHT22;6349;50.904;6.136;2023-06-14T00:35:11;19.40;99.90
12568;DHT22;6349;50.904;6.136;2023-06-14T00:37:13;19.40;99.90
12568;DHT22;6349;50.904;6.136;2023-06-14T00:39:14;19.30;99.90
12568;DHT22;6349;50.904;6.136;2023-06-14T00:41:15;19.30;99.90
12568;DHT22;6349;50.904;6.136;2023-06-14T00:43:15;19.30;99.90
12568;DHT22;6349;50.904;6.136;2023-06-14T00:45:17;19.30;99.90
12568;DHT22;6349;50.904;6.136;2023-06-14T00:47:19;19.30;99.90
12568;DHT22;6349;50.904;6.136;2023-06-14T00:49:22;19.30;99.90
12568;DHT22;6349;50.904;6.136;2023-06-14T00:51:24;19.20;99.90
12568;DHT22;6349;50.904;6.136;2023-06-14T00:53:25;19.20;99.90
12568;DHT22;6349;50.904;6.136;2023-06-14T00:55:27;19.10;99.90
12568;DHT22;6349;50.904;6.136;2023-06-14T00:57:29;19.10;99.90
12568;DHT22;6349;50.904;6.136;2023-06-14T00:59:35;19.00;99.90
12568;DHT22;6349;50.904;6.136;2023-06-14T01:01:39;19.00;99.90
12568;DHT22;6349;50.904;6.136;2023-06-14T01:03:40;18.90;99.90
12568;DHT22;6349;50.904;6.136;2023-06-14T01:05:42;19.00;99.90
12568;DHT22;6349;50.904;6.136;2023-06-14T01:11:10;18.80;99.90
12568;DHT22;6349;50.904;6.136;2023-06-14T01:13:27;18.90;99.90
12568;DHT22;6349;50.904;6.136;2023-06-14T01:15:34;18.80;99.90
12568;DHT22;6349;50.904;6.136;2023-06-14T01:17:35;18.80;99.90
12568;DHT22;6349;50.904;6.136;2023-06-14T01:19:46;18.90;99.90
12568;DHT22;6349;50.904;6.136;2023-06-14T01:21:46;18.80;99.90
12568;DHT22;6349;50.904;6.136;2023-06-14T01:23:53;18.80;99.90
12568;DHT22;6349;50.904;6.136;2023-06-14T01:25:56;18.90;99.90
12568;DHT22;6349;50.904;6.136;2023-06-14T01:28:04;18.80;99.90
12568;DHT22;6349;50.904;6.136;2023-06-14T01:30:12;18.80;99.90
12568;DHT22;6349;50.904;6.136;2023-06-14T01:32:13;18.80;99.90
12568;DHT22;6349;50.904;6.136;2023-06-14T01:34:15;18.80;99.90
12568;DHT22;6349;50.904;6.136;2023-06-14T01:36:19;18.90;99.90
12568;DHT22;6349;50.904;6.136;2023-06-14T01:38:23;19.00;99.90
12568;DHT22;6349;50.904;6.136;2023-06-14T01:40:26;19.20;99.90
12568;DHT22;6349;50.904;6.136;2023-06-14T01:42:27;19.30;99.90
12568;DHT22;6349;50.904;6.136;2023-06-14T01:44:30;19.30;99.90
12568;DHT22;6349;50.904;6.136;2023-06-14T01:46:33;19.30;99.90
12568;DHT22;6349;50.904;6.136;2023-06-14T01:48:34;19.20;99.90
12568;DHT22;6349;50.904;6.136;2023-06-14T01:50:35;19.30;99.90
12568;DHT22;6349;50.904;6.136;2023-06-14T01:52:37;19.30;99.90
12568;DHT22;6349;50.904;6.136;2023-06-14T01:54:40;19.30;99.90
12568;DHT22;6349;50.904;6.136;2023-06-14T01:56:42;19.40;99.90
12568;DHT22;6349;50.904;6.136;2023-06-14T01:58:42;19.40;99.90
12568;DHT22;6349;50.904;6.136;2023-06-14T02:00:43;19.50;99.90
12568;DHT22;6349;50.904;6.136;2023-06-14T02:02:45;19.40;99.90
12568;DHT22;6349;50.904;6.136;2023-06-14T02:04:47;19.30;99.90
12568;DHT22;6349;50.904;6.136;2023-06-14T02:06:48;19.30;99.90
12568;DHT22;6349;50.904;6.136;2023-06-14T02:08:48;19.40;99.90
12568;DHT22;6349;50.904;6.136;2023-06-14T02:10:53;19.40;99.90
12568;DHT22;6349;50.904;6.136;2023-06-14T02:12:55;19.40;99.90
12568;DHT22;6349;50.904;6.136;2023-06-14T02:14:56;19.40;99.90
12568;DHT22;6349;50.904;6.136;2023-06-14T02:16:58;19.30;99.90
12568;DHT22;6349;50.904;6.136;2023-06-14T02:18:59;19.30;99.90
12568;DHT22;6349;50.904;6.136;2023-06-14T02:20:59;19.30;99.90
12568;DHT22;6349;50.904;6.136;2023-06-14T02:23:00;19.20;99.90
12568;DHT22;6349;50.904;6.136;2023-06-14T02:25:02;19.10;99.90
12568;DHT22;6349;50.904;6.136;2023-06-14T02:27:04;19.00;99.90
12568;DHT22;6349;50.904;6.136;2023-06-14T02:29:06;18.90;99.90
12568;DHT22;6349;50.904;6.136;2023-06-14T02:31:09;18.80;99.90
12568;DHT22;6349;50.904;6.136;2023-06-14T02:33:11;18.70;99.90
12568;DHT22;6349;50.904;6.136;2023-06-14T02:35:14;18.70;99.90
12568;DHT22;6349;50.904;6.136;2023-06-14T02:37:16;18.60;99.90
12568;DHT22;6349;50.904;6.136;2023-06-14T02:39:17;18.50;99.90
12568;DHT22;6349;50.904;6.136;2023-06-14T02:41:21;18.40;99.90
12568;DHT22;6349;50.904;6.136;2023-06-14T02:43:22;18.40;99.90
12568;DHT22;6349;50.904;6.136;2023-06-14T02:45:24;18.50;99.90
12568;DHT22;6349;50.904;6.136;2023-06-14T02:47:25;18.50;99.90
12568;DHT22;6349;50.904;6.136;2023-06-14T02:49:27;18.50;99.90
12568;DHT22;6349;50.904;6.136;2023-06-14T02:51:29;18.50;99.90
12568;DHT22;6349;50.904;6.136;2023-06-14T02:53:31;18.50;99.90
12568;DHT22;6349;50.904;6.136;2023-06-14T02:55:32;18.40;99.90
12568;DHT22;6349;50.904;6.136;2023-06-14T02:57:33;18.40;99.90
12568;DHT22;6349;50.904;6.136;2023-06-14T02:59:34;18.50;99.90
12568;DHT22;6349;50.904;6.136;2023-06-14T03:01:37;18.50;99.90
12568;DHT22;6349;50.904;6.136;2023-06-14T03:03:41;18.40;99.90
12568;DHT22;6349;50.904;6.136;2023-06-14T03:05:45;18.40;99.90
12568;DHT22;6349;50.904;6.136;2023-06-14T03:07:51;18.40;99.90
12568;DHT22;6349;50.904;6.136;2023-06-14T03:09:52;18.30;99.90
12568;DHT22;6349;50.904;6.136;2023-06-14T03:11:54;18.30;99.90
12568;DHT22;6349;50.904;6.136;2023-06-14T03:13:56;18.20;99.90
12568;DHT22;6349;50.904;6.136;2023-06-14T03:15:59;18.20;99.90
12568;DHT22;6349;50.904;6.136;2023-06-14T03:18:02;18.20;99.90
12568;DHT22;6349;50.904;6.136;2023-06-14T03:20:04;18.10;99.90
12568;DHT22;6349;50.904;6.136;2023-06-14T03:22:07;18.10;99.90
12568;DHT22;6349;50.904;6.136;2023-06-14T03:24:09;18.00;99.90
12568;DHT22;6349;50.904;6.136;2023-06-14T03:26:09;17.90;99.90
12568;DHT22;6349;50.904;6.136;2023-06-14T03:28:13;17.80;99.90
12568;DHT22;6349;50.904;6.136;2023-06-14T03:30:15;17.80;99.90
12568;DHT22;6349;50.904;6.136;2023-06-14T03:32:17;17.70;99.90
12568;DHT22;6349;50.904;6.136;2023-06-14T03:34:18;17.70;99.90
12568;DHT22;6349;50.904;6.136;2023-06-14T03:36:19;17.70;99.90
12568;DHT22;6349;50.904;6.136;2023-06-14T03:38:20;17.70;99.90
12568;DHT22;6349;50.904;6.136;2023-06-14T03:40:22;17.60;99.90
12568;DHT22;6349;50.904;6.136;2023-06-14T03:42:27;17.60;99.90
12568;DHT22;6349;50.904;6.136;2023-06-14T03:44:29;17.60;99.90
12568;DHT22;6349;50.904;6.136;2023-06-14T03:46:30;17.60;99.90
12568;DHT22;6349;50.904;6.136;2023-06-14T03:48:31;17.50;99.90
12568;DHT22;6349;50.904;6.136;2023-06-14T03:50:32;17.40;99.90
12568;DHT22;6349;50.904;6.136;2023-06-14T03:52:35;17.40;99.90
12568;DHT22;6349;50.904;6.136;2023-06-14T03:54:38;17.40;99.90
12568;DHT22;6349;50.904;6.136;2023-06-14T03:56:39;17.40;99.90
12568;DHT22;6349;50.904;6.136;2023-06-14T03:58:41;17.30;99.90
12568;DHT22;6349;50.904;6.136;2023-06-14T04:00:42;17.30;99.90
12568;DHT22;6349;50.904;6.136;2023-06-14T04:02:43;17.30;99.90
12568;DHT22;6349;50.904;6.136;2023-06-14T04:04:48;17.20;99.90
12568;DHT22;6349;50.904;6.136;2023-06-14T04:06:49;17.20;99.90
12568;DHT22;6349;50.904;6.136;2023-06-14T04:08:51;17.20;99.90
12568;DHT22;6349;50.904;6.136;2023-06-14T04:10:53;17.20;99.90
12568;DHT22;6349;50.904;6.136;2023-06-14T04:12:54;17.10;99.90
12568;DHT22;6349;50.904;6.136;2023-06-14T04:14:56;17.20;99.90
12568;DHT22;6349;50.904;6.136;2023-06-14T04:16:57;17.10;99.90
12568;DHT22;6349;50.904;6.136;2023-06-14T04:18:57;17.20;99.90
12568;DHT22;6349;50.904;6.136;2023-06-14T04:20:58;17.10;99.90
12568;DHT22;6349;50.904;6.136;2023-06-14T04:23:20;17.10;99.90
12568;DHT22;6349;50.904;6.136;2023-06-14T04:25:23;17.10;99.90
12568;DHT22;6349;50.904;6.136;2023-06-14T04:27:27;17.10;99.90
12568;DHT22;6349;50.904;6.136;2023-06-14T04:29:28;17.20;99.90
12568;DHT22;6349;50.904;6.136;2023-06-14T04:31:31;17.20;99.90
12568;DHT22;6349;50.904;6.136;2023-06-14T04:33:38;17.20;99.90
12568;DHT22;6349;50.904;6.136;2023-06-14T04:35:48;17.20;99.90
12568;DHT22;6349;50.904;6.136;2023-06-14T04:37:49;17.20;99.90
12568;DHT22;6349;50.904;6.136;2023-06-14T04:39:51;17.30;99.90
12568;DHT22;6349;50.904;6.136;2023-06-14T04:41:53;17.30;99.90
12568;DHT22;6349;50.904;6.136;2023-06-14T04:44:00;17.30;99.90
12568;DHT22;6349;50.904;6.136;2023-06-14T04:46:06;17.30;99.90
12568;DHT22;6349;50.904;6.136;2023-06-14T04:48:12;17.40;99.90
12568;DHT22;6349;50.904;6.136;2023-06-14T04:50:13;17.50;99.90
12568;DHT22;6349;50.904;6.136;2023-06-14T04:52:15;17.50;99.90
12568;DHT22;6349;50.904;6.136;2023-06-14T04:54:19;17.60;99.90
12568;DHT22;6349;50.904;6.136;2023-06-14T04:56:20;17.60;99.90
12568;DHT22;6349;50.904;6.136;2023-06-14T04:58:20;17.60;99.90
12568;DHT22;6349;50.904;6.136;2023-06-14T05:00:22;17.60;99.90
12568;DHT22;6349;50.904;6.136;2023-06-14T05:02:24;17.70;99.90
12568;DHT22;6349;50.904;6.136;2023-06-14T05:04:26;17.70;99.90
12568;DHT22;6349;50.904;6.136;2023-06-14T05:06:29;17.70;99.90
12568;DHT22;6349;50.904;6.136;2023-06-14T05:08:32;17.70;99.90
12568;DHT22;6349;50.904;6.136;2023-06-14T05:10:33;17.70;99.90
12568;DHT22;6349;50.904;6.136;2023-06-14T05:12:35;17.80;99.90
12568;DHT22;6349;50.904;6.136;2023-06-14T05:14:37;17.80;99.90
12568;DHT22;6349;50.904;6.136;2023-06-14T05:16:37;17.80;99.90
12568;DHT22;6349;50.904;6.136;2023-06-14T05:18:39;17.90;99.90
12568;DHT22;6349;50.904;6.136;2023-06-14T05:20:41;17.90;99.90
12568;DHT22;6349;50.904;6.136;2023-06-14T05:22:44;18.00;99.90
12568;DHT22;6349;50.904;6.136;2023-06-14T05:24:46;17.90;99.90
12568;DHT22;6349;50.904;6.136;2023-06-14T05:26:48;17.90;99.90
12568;DHT22;6349;50.904;6.136;2023-06-14T05:28:50;18.00;99.90
12568;DHT22;6349;50.904;6.136;2023-06-14T05:30:53;18.00;99.90
12568;DHT22;6349;50.904;6.136;2023-06-14T05:32:53;18.00;99.90
12568;DHT22;6349;50.904;6.136;2023-06-14T05:34:56;18.10;99.90
12568;DHT22;6349;50.904;6.136;2023-06-14T05:36:58;18.20;99.90
12568;DHT22;6349;50.904;6.136;2023-06-14T05:39:01;18.10;99.90
12568;DHT22;6349;50.904;6.136;2023-06-14T05:41:05;18.20;99.90
12568;DHT22;6349;50.904;6.136;2023-06-14T05:43:06;18.40;99.90
12568;DHT22;6349;50.904;6.136;2023-06-14T05:45:08;18.50;99.90
12568;DHT22;6349;50.904;6.136;2023-06-14T05:47:10;18.70;99.90
12568;DHT22;6349;50.904;6.136;2023-06-14T05:49:11;18.80;99.90
12568;DHT22;6349;50.904;6.136;2023-06-14T05:51:13;18.90;99.90
12568;DHT22;6349;50.904;6.136;2023-06-14T05:53:16;19.00;99.90
12568;DHT22;6349;50.904;6.136;2023-06-14T05:55:18;19.10;99.90
12568;DHT22;6349;50.904;6.136;2023-06-14T05:57:19;19.20;99.90
12568;DHT22;6349;50.904;6.136;2023-06-14T05:59:21;19.10;99.90
12568;DHT22;6349;50.904;6.136;2023-06-14T06:01:22;19.20;99.90
12568;DHT22;6349;50.904;6.136;2023-06-14T06:03:23;19.30;99.90
12568;DHT22;6349;50.904;6.136;2023-06-14T06:05:25;19.30;99.90
12568;DHT22;6349;50.904;6.136;2023-06-14T06:07:27;19.40;99.90
12568;DHT22;6349;50.904;6.136;2023-06-14T06:09:29;19.40;99.90
12568;DHT22;6349;50.904;6.136;2023-06-14T06:11:30;19.50;99.90
12568;DHT22;6349;50.904;6.136;2023-06-14T06:13:30;19.50;99.90
12568;DHT22;6349;50.904;6.136;2023-06-14T06:15:32;19.50;99.90
12568;DHT22;6349;50.904;6.136;2023-06-14T06:17:32;19.60;99.90
12568;DHT22;6349;50.904;6.136;2023-06-14T06:19:33;19.60;99.90
12568;DHT22;6349;50.904;6.136;2023-06-14T06:21:34;19.70;99.90
12568;DHT22;6349;50.904;6.136;2023-06-14T06:23:34;19.70;99.90
12568;DHT22;6349;50.904;6.136;2023-06-14T06:25:37;19.70;99.90
12568;DHT22;6349;50.904;6.136;2023-06-14T06:27:38;19.80;99.90
12568;DHT22;6349;50.904;6.136;2023-06-14T06:29:42;19.80;99.90
12568;DHT22;6349;50.904;6.136;2023-06-14T06:31:45;19.70;99.90
12568;DHT22;6349;50.904;6.136;2023-06-14T06:33:46;19.80;99.90
12568;DHT22;6349;50.904;6.136;2023-06-14T06:35:48;19.80;99.90
12568;DHT22;6349;50.904;6.136;2023-06-14T06:37:48;19.90;99.90
12568;DHT22;6349;50.904;6.136;2023-06-14T06:39:50;20.00;99.90
12568;DHT22;6349;50.904;6.136;2023-06-14T06:41:51;20.00;99.90
12568;DHT22;6349;50.904;6.136;2023-06-14T06:43:51;20.10;99.90
12568;DHT22;6349;50.904;6.136;2023-06-14T06:45:53;20.10;99.90
12568;DHT22;6349;50.904;6.136;2023-06-14T06:47:55;20.20;99.90
12568;DHT22;6349;50.904;6.136;2023-06-14T06:49:56;20.30;99.90
12568;DHT22;6349;50.904;6.136;2023-06-14T06:52:04;20.30;99.90
12568;DHT22;6349;50.904;6.136;2023-06-14T06:54:06;20.30;99.90
12568;DHT22;6349;50.904;6.136;2023-06-14T06:56:08;20.30;99.90
12568;DHT22;6349;50.904;6.136;2023-06-14T06:58:08;20.40;99.90
12568;DHT22;6349;50.904;6.136;2023-06-14T07:00:10;20.40;99.90
12568;DHT22;6349;50.904;6.136;2023-06-14T07:02:14;20.40;99.90
12568;DHT22;6349;50.904;6.136;2023-06-14T07:04:16;20.40;99.90
12568;DHT22;6349;50.904;6.136;2023-06-14T07:06:17;20.50;99.90
12568;DHT22;6349;50.904;6.136;2023-06-14T07:08:20;20.50;99.90
12568;DHT22;6349;50.904;6.136;2023-06-14T07:10:22;20.60;99.90
12568;DHT22;6349;50.904;6.136;2023-06-14T07:12:23;20.60;99.90
12568;DHT22;6349;50.904;6.136;2023-06-14T07:14:24;20.60;99.90
12568;DHT22;6349;50.904;6.136;2023-06-14T07:16:26;20.60;99.90
12568;DHT22;6349;50.904;6.136;2023-06-14T07:18:28;20.60;99.90
12568;DHT22;6349;50.904;6.136;2023-06-14T07:20:30;20.70;99.90
12568;DHT22;6349;50.904;6.136;2023-06-14T07:22:32;20.70;99.90
12568;DHT22;6349;50.904;6.136;2023-06-14T07:24:34;20.80;99.90
12568;DHT22;6349;50.904;6.136;2023-06-14T07:26:36;20.80;99.90
12568;DHT22;6349;50.904;6.136;2023-06-14T07:28:38;20.80;99.90
12568;DHT22;6349;50.904;6.136;2023-06-14T07:30:39;20.90;99.90
12568;DHT22;6349;50.904;6.136;2023-06-14T07:32:41;20.90;99.90
12568;DHT22;6349;50.904;6.136;2023-06-14T07:34:43;21.00;99.90
12568;DHT22;6349;50.904;6.136;2023-06-14T07:36:45;21.10;99.90
12568;DHT22;6349;50.904;6.136;2023-06-14T07:38:47;21.10;99.90
12568;DHT22;6349;50.904;6.136;2023-06-14T07:40:49;21.10;99.90
12568;DHT22;6349;50.904;6.136;2023-06-14T07:42:50;21.20;99.90
12568;DHT22;6349;50.904;6.136;2023-06-14T07:44:52;21.20;99.90
12568;DHT22;6349;50.904;6.136;2023-06-14T07:46:54;21.20;99.90
12568;DHT22;6349;50.904;6.136;2023-06-14T07:48:58;21.20;99.90
12568;DHT22;6349;50.904;6.136;2023-06-14T07:50:58;21.30;99.90
12568;DHT22;6349;50.904;6.136;2023-06-14T07:52:59;21.30;99.90
12568;DHT22;6349;50.904;6.136;2023-06-14T07:55:01;21.30;99.90
12568;DHT22;6349;50.904;6.136;2023-06-14T07:57:02;21.30;99.90
12568;DHT22;6349;50.904;6.136;2023-06-14T07:59:03;21.40;99.90
12568;DHT22;6349;50.904;6.136;2023-06-14T08:01:03;21.40;99.90
12568;DHT22;6349;50.904;6.136;2023-06-14T08:03:06;21.50;99.90
12568;DHT22;6349;50.904;6.136;2023-06-14T08:05:10;21.50;99.90
12568;DHT22;6349;50.904;6.136;2023-06-14T08:07:11;21.60;99.90
12568;DHT22;6349;50.904;6.136;2023-06-14T08:09:13;21.60;99.90
12568;DHT22;6349;50.904;6.136;2023-06-14T08:11:15;21.70;99.90
12568;DHT22;6349;50.904;6.136;2023-06-14T08:13:16;21.70;99.90
12568;DHT22;6349;50.904;6.136;2023-06-14T08:15:17;21.70;99.90
12568;DHT22;6349;50.904;6.136;2023-06-14T08:17:18;21.80;99.90
12568;DHT22;6349;50.904;6.136;2023-06-14T08:19:18;21.80;99.90
12568;DHT22;6349;50.904;6.136;2023-06-14T08:21:20;21.90;99.90
12568;DHT22;6349;50.904;6.136;2023-06-14T08:23:20;22.00;99.90
12568;DHT22;6349;50.904;6.136;2023-06-14T08:25:21;22.10;99.90
12568;DHT22;6349;50.904;6.136;2023-06-14T08:27:22;22.10;99.90
12568;DHT22;6349;50.904;6.136;2023-06-14T08:29:23;22.20;99.90
12568;DHT22;6349;50.904;6.136;2023-06-14T08:31:23;22.20;99.90
12568;DHT22;6349;50.904;6.136;2023-06-14T08:33:27;22.20;99.90
12568;DHT22;6349;50.904;6.136;2023-06-14T08:35:27;22.20;99.90
12568;DHT22;6349;50.904;6.136;2023-06-14T08:37:28;22.20;99.90
12568;DHT22;6349;50.904;6.136;2023-06-14T08:39:31;22.30;99.90
12568;DHT22;6349;50.904;6.136;2023-06-14T08:41:32;22.30;99.90
12568;DHT22;6349;50.904;6.136;2023-06-14T08:43:34;22.30;99.90
12568;DHT22;6349;50.904;6.136;2023-06-14T08:45:35;22.30;99.90
12568;DHT22;6349;50.904;6.136;2023-06-14T08:47:36;22.40;99.90
12568;DHT22;6349;50.904;6.136;2023-06-14T08:49:38;22.40;99.90
12568;DHT22;6349;50.904;6.136;2023-06-14T08:51:38;22.40;99.90
12568;DHT22;6349;50.904;6.136;2023-06-14T08:53:41;22.40;99.90
12568;DHT22;6349;50.904;6.136;2023-06-14T08:55:42;22.50;99.90
12568;DHT22;6349;50.904;6.136;2023-06-14T08:57:44;22.60;99.90
12568;DHT22;6349;50.904;6.136;2023-06-14T08:59:47;22.70;99.90
12568;DHT22;6349;50.904;6.136;2023-06-14T09:01:54;22.70;99.90
12568;DHT22;6349;50.904;6.136;2023-06-14T09:03:55;22.80;99.90
12568;DHT22;6349;50.904;6.136;2023-06-14T09:05:57;22.80;99.90
12568;DHT22;6349;50.904;6.136;2023-06-14T09:08:01;22.80;99.90
12568;DHT22;6349;50.904;6.136;2023-06-14T09:10:11;23.00;99.90
12568;DHT22;6349;50.904;6.136;2023-06-14T09:12:13;23.00;99.90
12568;DHT22;6349;50.904;6.136;2023-06-14T09:14:14;23.00;99.90
12568;DHT22;6349;50.904;6.136;2023-06-14T09:16:14;23.10;99.90
12568;DHT22;6349;50.904;6.136;2023-06-14T09:18:15;23.10;99.90
12568;DHT22;6349;50.904;6.136;2023-06-14T09:20:15;23.20;99.90
12568;DHT22;6349;50.904;6.136;2023-06-14T09:22:19;23.20;99.90
12568;DHT22;6349;50.904;6.136;2023-06-14T09:24:20;23.20;99.90
12568;DHT22;6349;50.904;6.136;2023-06-14T09:26:21;23.10;99.90
12568;DHT22;6349;50.904;6.136;2023-06-14T09:28:30;23.10;99.90
12568;DHT22;6349;50.904;6.136;2023-06-14T09:30:32;23.20;99.90
12568;DHT22;6349;50.904;6.136;2023-06-14T09:32:37;23.30;99.90
12568;DHT22;6349;50.904;6.136;2023-06-14T09:34:40;23.20;99.90
12568;DHT22;6349;50.904;6.136;2023-06-14T09:36:40;23.30;99.90
12568;DHT22;6349;50.904;6.136;2023-06-14T09:38:54;23.40;99.90
12568;DHT22;6349;50.904;6.136;2023-06-14T09:40:59;23.30;99.90
12568;DHT22;6349;50.904;6.136;2023-06-14T09:43:06;23.40;99.90
12568;DHT22;6349;50.904;6.136;2023-06-14T09:45:07;23.60;99.90
12568;DHT22;6349;50.904;6.136;2023-06-14T09:47:08;23.60;99.90
12568;DHT22;6349;50.904;6.136;2023-06-14T09:49:09;23.60;99.90
12568;DHT22;6349;50.904;6.136;2023-06-14T09:51:10;23.60;99.90
12568;DHT22;6349;50.904;6.136;2023-06-14T09:53:14;23.60;99.90
12568;DHT22;6349;50.904;6.136;2023-06-14T09:55:16;23.60;99.90
12568;DHT22;6349;50.904;6.136;2023-06-14T09:57:21;23.60;99.90
12568;DHT22;6349;50.904;6.136;2023-06-14T09:59:26;23.70;99.90
12568;DHT22;6349;50.904;6.136;2023-06-14T10:01:31;23.70;99.90
12568;DHT22;6349;50.904;6.136;2023-06-14T10:03:33;23.70;99.90
12568;DHT22;6349;50.904;6.136;2023-06-14T10:05:36;23.80;99.90
12568;DHT22;6349;50.904;6.136;2023-06-14T10:08:04;23.90;99.90
12568;DHT22;6349;50.904;6.136;2023-06-14T10:10:09;23.90;99.90
12568;DHT22;6349;50.904;6.136;2023-06-14T10:12:10;24.00;99.90
12568;DHT22;6349;50.904;6.136;2023-06-14T10:14:12;24.00;99.90
12568;DHT22;6349;50.904;6.136;2023-06-14T10:16:33;23.90;99.90
12568;DHT22;6349;50.904;6.136;2023-06-14T10:21:13;24.00;99.90
12568;DHT22;6349;50.904;6.136;2023-06-14T10:23:19;24.10;99.90
12568;DHT22;6349;50.904;6.136;2023-06-14T10:25:30;24.20;99.90
12568;DHT22;6349;50.904;6.136;2023-06-14T10:27:31;24.20;99.90
12568;DHT22;6349;50.904;6.136;2023-06-14T10:29:31;24.30;99.90
12568;DHT22;6349;50.904;6.136;2023-06-14T10:31:47;24.40;99.90
12568;DHT22;6349;50.904;6.136;2023-06-14T10:33:50;24.50;99.10
12568;DHT22;6349;50.904;6.136;2023-06-14T10:36:27;24.40;99.80
12568;DHT22;6349;50.904;6.136;2023-06-14T10:38:30;24.40;99.40
12568;DHT22;6349;50.904;6.136;2023-06-14T10:40:34;24.30;98.40
12568;DHT22;6349;50.904;6.136;2023-06-14T10:42:36;24.50;98.70
12568;DHT22;6349;50.904;6.136;2023-06-14T10:44:52;24.50;98.80
12568;DHT22;6349;50.904;6.136;2023-06-14T10:46:55;24.50;98.10
12568;DHT22;6349;50.904;6.136;2023-06-14T10:48:57;24.50;98.10
12568;DHT22;6349;50.904;6.136;2023-06-14T10:51:02;24.50;97.80
12568;DHT22;6349;50.904;6.136;2023-06-14T10:53:21;24.60;98.50
12568;DHT22;6349;50.904;6.136;2023-06-14T10:55:23;24.60;99.50
12568;DHT22;6349;50.904;6.136;2023-06-14T10:57:25;24.60;99.80
12568;DHT22;6349;50.904;6.136;2023-06-14T10:59:26;24.70;99.00
12568;DHT22;6349;50.904;6.136;2023-06-14T11:01:35;24.70;98.60
12568;DHT22;6349;50.904;6.136;2023-06-14T11:03:50;24.70;98.70
12568;DHT22;6349;50.904;6.136;2023-06-14T11:05:57;24.60;98.40
12568;DHT22;6349;50.904;6.136;2023-06-14T11:08:15;24.60;98.90
12568;DHT22;6349;50.904;6.136;2023-06-14T11:12:35;24.60;97.40
12568;DHT22;6349;50.904;6.136;2023-06-14T11:14:37;24.60;96.80
12568;DHT22;6349;50.904;6.136;2023-06-14T11:16:38;24.60;96.70
12568;DHT22;6349;50.904;6.136;2023-06-14T11:18:39;24.60;97.30
12568;DHT22;6349;50.904;6.136;2023-06-14T11:20:40;24.50;98.00
12568;DHT22;6349;50.904;6.136;2023-06-14T11:22:41;24.60;97.90
12568;DHT22;6349;50.904;6.136;2023-06-14T11:24:43;24.70;98.90
12568;DHT22;6349;50.904;6.136;2023-06-14T11:26:47;24.80;98.60
12568;DHT22;6349;50.904;6.136;2023-06-14T11:28:55;24.90;98.60
12568;DHT22;6349;50.904;6.136;2023-06-14T11:31:02;25.00;99.40
12568;DHT22;6349;50.904;6.136;2023-06-14T11:33:03;25.10;99.90
12568;DHT22;6349;50.904;6.136;2023-06-14T11:35:04;25.00;99.70
12568;DHT22;6349;50.904;6.136;2023-06-14T11:37:05;25.10;99.90
12568;DHT22;6349;50.904;6.136;2023-06-14T11:39:07;25.10;99.90
12568;DHT22;6349;50.904;6.136;2023-06-14T11:41:08;25.20;99.20
12568;DHT22;6349;50.904;6.136;2023-06-14T11:43:09;25.20;98.80
12568;DHT22;6349;50.904;6.136;2023-06-14T11:45:11;25.10;99.90
12568;DHT22;6349;50.904;6.136;2023-06-14T11:47:12;25.20;99.90
12568;DHT22;6349;50.904;6.136;2023-06-14T11:49:13;25.20;99.80
12568;DHT22;6349;50.904;6.136;2023-06-14T11:51:14;25.30;99.90
12568;DHT22;6349;50.904;6.136;2023-06-14T11:53:15;25.30;99.90
12568;DHT22;6349;50.904;6.136;2023-06-14T11:55:18;25.30;99.90
12568;DHT22;6349;50.904;6.136;2023-06-14T11:57:20;25.40;99.90
12568;DHT22;6349;50.904;6.136;2023-06-14T11:59:21;25.40;99.90
12568;DHT22;6349;50.904;6.136;2023-06-14T12:01:23;25.40;99.30
12568;DHT22;6349;50.904;6.136;2023-06-14T12:03:24;25.50;99.50
12568;DHT22;6349;50.904;6.136;2023-06-14T12:05:29;25.40;98.90
12568;DHT22;6349;50.904;6.136;2023-06-14T12:07:30;25.50;99.80
12568;DHT22;6349;50.904;6.136;2023-06-14T12:09:33;25.50;99.50
12568;DHT22;6349;50.904;6.136;2023-06-14T12:11:35;25.60;99.50
12568;DHT22;6349;50.904;6.136;2023-06-14T12:13:38;25.70;99.90
12568;DHT22;6349;50.904;6.136;2023-06-14T12:15:40;25.70;99.00
12568;DHT22;6349;50.904;6.136;2023-06-14T12:17:42;25.60;99.40
12568;DHT22;6349;50.904;6.136;2023-06-14T12:19:44;25.60;97.30
12568;DHT22;6349;50.904;6.136;2023-06-14T12:21:48;25.60;98.90
12568;DHT22;6349;50.904;6.136;2023-06-14T12:23:49;25.70;98.50
12568;DHT22;6349;50.904;6.136;2023-06-14T12:25:51;25.70;98.50
12568;DHT22;6349;50.904;6.136;2023-06-14T12:27:54;25.90;98.00
12568;DHT22;6349;50.904;6.136;2023-06-14T12:30:05;25.80;97.80
12568;DHT22;6349;50.904;6.136;2023-06-14T12:32:08;25.90;97.30
12568;DHT22;6349;50.904;6.136;2023-06-14T12:34:08;26.00;97.30
12568;DHT22;6349;50.904;6.136;2023-06-14T12:36:09;26.10;97.40
12568;DHT22;6349;50.904;6.136;2023-06-14T12:38:10;26.20;96.70
12568;DHT22;6349;50.904;6.136;2023-06-14T12:40:13;26.10;96.90
12568;DHT22;6349;50.904;6.136;2023-06-14T12:42:14;26.10;97.70
12568;DHT22;6349;50.904;6.136;2023-06-14T12:44:15;26.10;97.40
12568;DHT22;6349;50.904;6.136;2023-06-14T12:46:16;26.10;97.80
12568;DHT22;6349;50.904;6.136;2023-06-14T12:48:17;26.30;97.30
12568;DHT22;6349;50.904;6.136;2023-06-14T12:50:17;26.10;95.30
12568;DHT22;6349;50.904;6.136;2023-06-14T12:52:18;26.00;95.40
12568;DHT22;6349;50.904;6.136;2023-06-14T12:54:20;26.00;96.20
12568;DHT22;6349;50.904;6.136;2023-06-14T12:56:22;26.00;96.90
12568;DHT22;6349;50.904;6.136;2023-06-14T12:58:24;26.10;96.50
12568;DHT22;6349;50.904;6.136;2023-06-14T13:00:25;26.30;95.20
12568;DHT22;6349;50.904;6.136;2023-06-14T13:02:30;26.30;95.70
12568;DHT22;6349;50.904;6.136;2023-06-14T13:04:31;26.30;95.30
12568;DHT22;6349;50.904;6.136;2023-06-14T13:06:32;26.40;95.30
12568;DHT22;6349;50.904;6.136;2023-06-14T13:08:32;26.40;96.30
12568;DHT22;6349;50.904;6.136;2023-06-14T13:10:34;26.50;95.90
12568;DHT22;6349;50.904;6.136;2023-06-14T13:12:35;26.60;96.20
12568;DHT22;6349;50.904;6.136;2023-06-14T13:14:35;26.70;96.50